Fishhead, Alabama
Current Conditions -  °F | °C
As of 8:53 PM on Tuesday 25 Nov 2014 (Local Time) from KANB Reporting Station
Clear Clear  
Wind Chill: 51°   Ceiling: Unl
Heat Index: 51°   Visibility: 10mi
Dew Point: 30°   Wind: 3mph
Humidity: 44%   Direction: NA
Pressure: 30.1"   Gusts: NA
Location:  33.4483°N, 85.6826°W
Report Text: KANB 260253Z AUTO VRB03KT 10SM CLR 11/M01 A3010 RMK AO2 SLP197 T01061011 51007
Loading
Personal Weather Stations






























Interactive Weather Map New forecast layout! Learn more

10-Day Weather Forecast

Advertisements
Track Severe Weather on mobile